createdAt,value
2022-08-03T00:00:23.628Z,100.00
2022-08-03T00:15:23.743Z,100.00
2022-08-03T00:30:23.720Z,100.00
2022-08-03T00:45:23.711Z,100.00
2022-08-03T01:00:23.837Z,100.00
2022-08-03T01:15:23.783Z,100.00
2022-08-03T01:30:24.037Z,100.00
2022-08-03T01:45:23.931Z,100.00
2022-08-03T02:00:23.865Z,100.00
2022-08-03T02:15:23.956Z,100.00
2022-08-03T02:30:24.124Z,100.00
2022-08-03T02:45:23.945Z,100.00
2022-08-03T03:00:28.156Z,100.00
2022-08-03T03:15:24.066Z,100.00
2022-08-03T03:30:23.976Z,100.00
2022-08-03T03:45:24.190Z,100.00
2022-08-03T04:00:24.642Z,100.00
2022-08-03T04:15:24.110Z,100.00
2022-08-03T04:30:24.101Z,100.00
2022-08-03T04:45:24.176Z,100.00
2022-08-03T05:00:24.077Z,100.00
2022-08-03T05:15:24.140Z,100.00
2022-08-03T05:30:30.620Z,100.00
2022-08-03T05:45:28.125Z,100.00
2022-08-03T06:00:24.294Z,100.00
2022-08-03T06:15:33.319Z,100.00
2022-08-03T06:30:33.367Z,100.00
2022-08-03T06:45:33.404Z,100.00
2022-08-03T07:00:33.448Z,100.00
2022-08-03T07:15:54.656Z,100.00
2022-08-03T07:30:23.465Z,100.00
2022-08-03T07:45:23.497Z,93.43
2022-08-03T08:00:23.791Z,89.77
2022-08-03T08:15:23.420Z,78.80
2022-08-03T08:30:23.424Z,85.70
2022-08-03T08:45:23.553Z,86.50
2022-08-03T09:00:23.596Z,71.63
2022-08-03T09:15:23.677Z,78.03
2022-08-03T09:30:33.781Z,79.53
2022-08-03T09:45:23.639Z,81.87
2022-08-03T10:00:24.052Z,71.37
2022-08-03T10:16:21.351Z,66.87
2022-08-03T10:30:26.144Z,59.40
2022-08-03T10:45:23.748Z,60.00
2022-08-03T11:00:24.026Z,52.47
2022-08-03T11:15:23.654Z,52.93
2022-08-03T11:30:27.497Z,50.80
2022-08-03T11:45:23.727Z,51.13
2022-08-03T12:00:26.176Z,48.30
2022-08-03T12:15:23.962Z,48.47
2022-08-03T12:30:23.806Z,48.23
2022-08-03T12:45:23.821Z,44.75
2022-08-03T13:00:29.349Z,45.33
2022-08-03T13:15:24.455Z,42.95
2022-08-03T13:30:29.900Z,42.30
2022-08-03T13:45:23.910Z,42.95
2022-08-03T14:00:27.165Z,41.13
2022-08-03T14:15:24.038Z,40.47
2022-08-03T14:30:23.792Z,39.67
2022-08-03T14:45:24.000Z,38.77
2022-08-03T15:00:25.742Z,39.20
2022-08-03T15:15:24.011Z,38.43
2022-08-03T15:30:24.380Z,39.25
2022-08-03T15:45:24.151Z,38.57
2022-08-03T16:00:33.516Z,39.07
2022-08-03T16:15:24.358Z,38.83
2022-08-03T16:30:24.286Z,38.50
2022-08-03T16:45:24.226Z,38.50
2022-08-03T17:00:41.115Z,43.87
2022-08-03T17:15:37.710Z,41.77
2022-08-03T17:30:25.280Z,48.00
2022-08-03T17:45:23.283Z,60.17
2022-08-03T18:00:23.938Z,67.55
2022-08-03T18:15:23.536Z,70.33
2022-08-03T18:30:27.681Z,76.25
2022-08-03T18:45:56.469Z,88.10
2022-08-03T19:00:24.966Z,93.20
2022-08-03T19:15:36.369Z,95.60
2022-08-03T19:30:26.271Z,98.20
2022-08-03T19:45:23.443Z,100.00
2022-08-03T20:00:26.267Z,100.00
2022-08-03T20:15:31.762Z,100.00
2022-08-03T20:30:26.384Z,100.00
2022-08-03T20:46:01.244Z,100.00
2022-08-03T21:00:23.580Z,100.00
2022-08-03T21:16:12.564Z,100.00
2022-08-03T21:30:24.609Z,100.00
2022-08-03T21:45:23.928Z,100.00
2022-08-03T22:00:36.305Z,100.00
2022-08-03T22:15:23.746Z,100.00
2022-08-03T22:30:23.990Z,100.00
2022-08-03T22:46:07.735Z,100.00
2022-08-03T23:00:24.031Z,100.00
2022-08-03T23:15:23.862Z,100.00
2022-08-03T23:30:31.196Z,100.00
2022-08-03T23:45:24.052Z,100.00
